createdAt,value
2019-03-04T00:01:13.145Z,83.86
2019-03-04T00:03:42.817Z,83.90
2019-03-04T00:06:12.425Z,83.94
2019-03-04T00:08:43.556Z,83.92
2019-03-04T00:11:13.514Z,83.86
2019-03-04T00:13:43.306Z,84.04
2019-03-04T00:16:12.913Z,84.05
2019-03-04T00:18:43.459Z,84.05
2019-03-04T00:21:13.535Z,84.05
2019-03-04T00:23:43.211Z,84.06
2019-03-04T00:26:13.970Z,83.99
2019-03-04T00:28:43.588Z,84.07
2019-03-04T00:31:13.316Z,84.15
2019-03-04T00:33:43.651Z,84.01
2019-03-04T00:36:14.358Z,84.28
2019-03-04T00:38:44.036Z,84.42
2019-03-04T00:41:13.684Z,84.55
2019-03-04T00:43:43.469Z,84.55
2019-03-04T00:46:14.743Z,84.47
2019-03-04T00:48:46.077Z,84.54
2019-03-04T00:51:15.681Z,84.52
2019-03-04T00:53:45.287Z,84.69
2019-03-04T00:56:15.518Z,84.52
2019-03-04T00:58:46.787Z,84.57
2019-03-04T01:01:17.175Z,84.48
2019-03-04T01:03:46.846Z,84.37
2019-03-04T01:06:16.562Z,84.30
2019-03-04T01:08:46.170Z,84.19
2019-03-04T01:11:15.838Z,83.98
2019-03-04T01:13:45.418Z,84.23
2019-03-04T01:16:15.025Z,84.38
2019-03-04T01:18:44.670Z,84.52
2019-03-04T01:21:15.513Z,84.48
2019-03-04T01:23:45.199Z,84.32
2019-03-04T01:26:14.867Z,84.42
2019-03-04T01:28:44.475Z,84.41
2019-03-04T01:31:14.190Z,84.35
2019-03-04T01:33:43.828Z,84.30
2019-03-04T01:36:13.472Z,84.32
2019-03-04T01:38:43.721Z,84.33
2019-03-04T01:41:13.375Z,84.34
2019-03-04T01:43:42.983Z,84.46
2019-03-04T01:46:12.595Z,84.54
2019-03-04T01:48:42.372Z,84.52
2019-03-04T01:51:12.007Z,84.39
2019-03-04T01:53:41.614Z,84.41
2019-03-04T01:56:11.257Z,84.32
2019-03-04T01:58:40.983Z,84.18
2019-03-04T02:01:10.761Z,84.18
2019-03-04T02:03:40.975Z,84.22
2019-03-04T02:06:10.582Z,84.11
2019-03-04T02:08:40.360Z,84.16
2019-03-04T02:11:10.015Z,84.21
2019-03-04T02:13:39.739Z,84.07
2019-03-04T02:16:09.345Z,84.09
2019-03-04T02:18:39.454Z,84.04
2019-03-04T02:21:10.128Z,84.00
2019-03-04T02:23:40.747Z,83.88
2019-03-04T02:26:13.366Z,83.58
2019-03-04T02:28:43.658Z,84.34
2019-03-04T02:31:14.547Z,84.72
2019-03-04T02:33:44.207Z,84.82
2019-03-04T02:36:13.833Z,84.64
2019-03-04T02:38:43.451Z,84.88
2019-03-04T02:41:13.130Z,84.92
2019-03-04T02:43:42.816Z,84.89
2019-03-04T02:46:12.552Z,84.81
2019-03-04T02:48:42.204Z,84.75
2019-03-04T02:51:13.292Z,84.78
2019-03-04T02:53:43.024Z,84.67
2019-03-04T02:56:13.059Z,84.77
2019-03-04T02:58:42.671Z,84.64
2019-03-04T03:01:13.337Z,84.69
2019-03-04T03:03:44.215Z,84.56
2019-03-04T03:06:13.949Z,84.61
2019-03-04T03:08:43.559Z,84.54
2019-03-04T03:11:15.439Z,84.53
2019-03-04T03:13:45.737Z,84.63
2019-03-04T03:16:17.258Z,84.69
2019-03-04T03:18:46.900Z,84.70
2019-03-04T03:21:16.512Z,84.65
2019-03-04T03:23:47.395Z,84.69
2019-03-04T03:26:17.058Z,84.75
2019-03-04T03:28:46.663Z,84.75
2019-03-04T03:31:16.448Z,85.07
2019-03-04T03:33:46.099Z,85.11
2019-03-04T03:36:16.737Z,85.13
2019-03-04T03:38:46.411Z,85.79
2019-03-04T03:41:16.449Z,86.39
2019-03-04T03:43:46.364Z,87.13
2019-03-04T03:46:15.972Z,88.17
2019-03-04T03:48:45.626Z,88.94
2019-03-04T03:51:16.221Z,89.41
2019-03-04T03:53:45.932Z,89.62
2019-03-04T03:56:15.581Z,89.90
2019-03-04T03:58:46.285Z,89.95
2019-03-04T04:01:16.002Z,89.71
2019-03-04T04:03:45.671Z,89.78
2019-03-04T04:06:15.278Z,89.92
2019-03-04T04:08:44.888Z,89.46
2019-03-04T04:11:16.222Z,89.51
2019-03-04T04:13:46.300Z,89.42
2019-03-04T04:16:15.909Z,89.56
2019-03-04T04:18:46.172Z,89.80
2019-03-04T04:21:16.146Z,89.72
2019-03-04T04:23:46.232Z,89.57
2019-03-04T04:26:21.708Z,89.61
2019-03-04T04:28:53.420Z,89.49
2019-03-04T04:31:23.044Z,89.30
2019-03-04T04:33:52.729Z,89.22
2019-03-04T04:36:23.021Z,89.04
2019-03-04T04:38:52.970Z,88.98
2019-03-04T04:41:23.693Z,88.94
2019-03-04T04:43:53.300Z,88.91
2019-03-04T04:46:26.093Z,88.97
2019-03-04T04:48:55.817Z,88.86
2019-03-04T04:51:25.594Z,88.96
2019-03-04T04:53:55.313Z,88.93
2019-03-04T04:56:26.033Z,88.95
2019-03-04T04:58:55.643Z,88.98
2019-03-04T05:01:25.255Z,89.03
2019-03-04T05:03:54.950Z,88.94
2019-03-04T05:06:25.385Z,88.77
2019-03-04T05:08:55.280Z,88.74
2019-03-04T05:11:24.959Z,88.65
2019-03-04T05:13:57.955Z,88.95
2019-03-04T05:16:27.570Z,88.83
2019-03-04T05:18:57.227Z,88.35
2019-03-04T05:21:27.213Z,88.37
2019-03-04T05:23:56.859Z,88.41
2019-03-04T05:26:26.534Z,88.90
2019-03-04T05:28:56.323Z,88.89
2019-03-04T05:31:26.267Z,89.00
2019-03-04T05:33:55.917Z,89.00
2019-03-04T05:36:25.531Z,89.07
2019-03-04T05:38:55.319Z,89.19
2019-03-04T05:41:25.639Z,89.33
2019-03-04T05:43:55.260Z,89.15
2019-03-04T05:46:24.874Z,89.11
2019-03-04T05:48:55.127Z,89.01
2019-03-04T05:51:25.129Z,88.74
2019-03-04T05:53:54.832Z,88.72
2019-03-04T05:56:24.609Z,88.54
2019-03-04T05:58:55.374Z,88.46
2019-03-04T06:01:27.930Z,88.29
2019-03-04T06:04:00.549Z,88.20
2019-03-04T06:06:46.804Z,88.00
2019-03-04T06:09:16.931Z,88.00
2019-03-04T06:11:46.549Z,87.18
2019-03-04T06:14:16.161Z,86.62
2019-03-04T06:16:47.515Z,86.40
2019-03-04T06:19:17.478Z,86.32
2019-03-04T06:21:47.255Z,86.35
2019-03-04T06:24:16.940Z,86.39
2019-03-04T06:26:46.829Z,86.55
2019-03-04T06:29:16.447Z,86.77
2019-03-04T06:31:46.123Z,86.57
2019-03-04T06:34:15.740Z,86.53
2019-03-04T06:36:45.350Z,86.52
2019-03-04T06:39:14.999Z,86.59
2019-03-04T06:41:44.623Z,86.46
2019-03-04T06:44:14.626Z,86.33
2019-03-04T06:46:45.087Z,86.38
2019-03-04T06:49:14.717Z,86.10
2019-03-04T06:51:45.435Z,85.92
2019-03-04T06:54:20.717Z,85.88
2019-03-04T06:56:59.501Z,85.76
2019-03-04T06:59:47.082Z,85.72
2019-03-04T07:02:19.913Z,85.87
2019-03-04T07:05:10.180Z,85.19
2019-03-04T07:07:39.800Z,84.99
2019-03-04T07:10:10.728Z,84.68
2019-03-04T07:12:41.358Z,84.51
2019-03-04T07:15:11.217Z,84.21
2019-03-04T07:17:42.038Z,83.75
2019-03-04T07:20:15.727Z,83.86
2019-03-04T07:22:48.445Z,83.79
2019-03-04T07:25:18.309Z,83.59
2019-03-04T07:27:48.436Z,83.48
2019-03-04T07:30:19.589Z,83.03
2019-03-04T07:32:50.012Z,83.01
2019-03-04T07:35:19.685Z,82.94
2019-03-04T07:37:52.345Z,82.92
2019-03-04T07:40:24.482Z,83.00
2019-03-04T07:42:54.898Z,82.72
2019-03-04T07:45:24.869Z,82.41
2019-03-04T07:47:54.616Z,82.11
2019-03-04T07:50:24.740Z,81.96
2019-03-04T07:52:58.527Z,81.40
2019-03-04T07:55:29.791Z,81.12
2019-03-04T07:57:59.750Z,80.59
2019-03-04T08:00:29.562Z,80.37
2019-03-04T08:02:59.505Z,79.73
2019-03-04T08:05:32.379Z,79.06
2019-03-04T08:08:09.980Z,79.06
2019-03-04T08:11:01.159Z,78.27
2019-03-04T08:13:54.898Z,77.67
2019-03-04T08:16:24.611Z,77.38
2019-03-04T08:18:54.240Z,77.65
2019-03-04T08:21:23.863Z,77.97
2019-03-04T08:23:55.046Z,77.40
2019-03-04T08:26:24.881Z,77.42
2019-03-04T08:28:55.096Z,77.61
2019-03-04T08:31:26.428Z,77.45
2019-03-04T08:33:56.551Z,77.16
2019-03-04T08:36:26.186Z,77.48
2019-03-04T08:38:57.674Z,77.31
2019-03-04T08:41:27.936Z,77.46
2019-03-04T08:43:57.617Z,77.36
2019-03-04T08:46:27.263Z,77.13
2019-03-04T08:48:57.271Z,77.17
2019-03-04T08:51:28.179Z,76.96
2019-03-04T08:53:57.971Z,76.97
2019-03-04T08:56:27.585Z,77.03
2019-03-04T08:58:58.441Z,76.71
2019-03-04T09:01:28.458Z,76.69
2019-03-04T09:03:58.077Z,76.83
2019-03-04T09:06:28.165Z,76.92
2019-03-04T09:08:58.517Z,76.52
2019-03-04T09:11:28.910Z,76.35
2019-03-04T09:13:58.864Z,76.61
2019-03-04T09:16:28.917Z,76.73
2019-03-04T09:18:58.534Z,76.46
2019-03-04T09:21:29.440Z,76.29
2019-03-04T09:23:59.140Z,76.30
2019-03-04T09:26:29.742Z,76.32
2019-03-04T09:28:59.363Z,75.89
2019-03-04T09:31:29.020Z,75.57
2019-03-04T09:33:58.820Z,75.21
2019-03-04T09:36:28.535Z,75.35
2019-03-04T09:38:58.461Z,75.09
2019-03-04T09:41:28.398Z,74.66
2019-03-04T09:43:58.014Z,73.84
2019-03-04T09:46:27.695Z,73.51
2019-03-04T09:48:58.479Z,72.47
2019-03-04T09:51:28.216Z,71.96
2019-03-04T09:53:59.013Z,71.78
2019-03-04T09:56:28.800Z,71.86
2019-03-04T09:58:58.458Z,71.50
2019-03-04T10:01:35.673Z,71.13
2019-03-04T10:04:17.752Z,71.05
2019-03-04T10:07:08.490Z,70.72
2019-03-04T10:09:57.120Z,70.55
2019-03-04T10:12:34.063Z,69.97
2019-03-04T10:15:32.659Z,69.81
2019-03-04T10:18:11.556Z,69.49
2019-03-04T10:21:02.321Z,69.18
2019-03-04T10:23:45.521Z,68.96
2019-03-04T10:26:45.263Z,69.48
2019-03-04T10:29:33.644Z,69.53
2019-03-04T10:32:18.336Z,69.15
2019-03-04T10:35:11.475Z,69.38
2019-03-04T10:37:59.622Z,69.71
2019-03-04T10:40:57.904Z,69.49
2019-03-04T10:43:51.886Z,69.42
2019-03-04T10:46:31.490Z,69.18
2019-03-04T10:49:01.473Z,69.28
2019-03-04T10:51:31.667Z,69.18
2019-03-04T10:54:01.355Z,69.48
2019-03-04T10:56:30.973Z,69.98
2019-03-04T10:59:01.353Z,69.98
2019-03-04T11:01:31.669Z,70.41
2019-03-04T11:04:02.521Z,70.45
2019-03-04T11:06:32.714Z,70.38
2019-03-04T11:09:02.861Z,70.12
2019-03-04T11:11:32.467Z,69.93
2019-03-04T11:14:02.569Z,69.59
2019-03-04T11:16:33.362Z,69.71
2019-03-04T11:19:04.441Z,69.45
2019-03-04T11:21:34.074Z,69.48
2019-03-04T11:24:05.217Z,69.30
2019-03-04T11:26:35.479Z,68.50
2019-03-04T11:29:06.198Z,68.52
2019-03-04T11:31:36.004Z,67.81
2019-03-04T11:34:06.291Z,67.00
2019-03-04T11:36:36.175Z,67.11
2019-03-04T11:39:22.744Z,66.98
2019-03-04T11:41:52.695Z,66.32
2019-03-04T11:44:22.326Z,65.49
2019-03-04T11:46:53.863Z,65.42
2019-03-04T11:49:24.280Z,65.00
2019-03-04T11:51:53.931Z,64.38
2019-03-04T11:54:23.754Z,64.48
2019-03-04T11:56:53.374Z,64.41
2019-03-04T11:59:23.000Z,64.11
2019-03-04T12:01:53.071Z,63.25
2019-03-04T12:04:24.064Z,62.49
2019-03-04T12:06:55.269Z,62.80
2019-03-04T12:09:24.953Z,62.57
2019-03-04T12:11:55.335Z,62.12
2019-03-04T12:14:25.840Z,62.02
2019-03-04T12:16:55.723Z,61.15
2019-03-04T12:19:25.707Z,61.07
2019-03-04T12:21:55.621Z,60.36
2019-03-04T12:24:25.307Z,59.48
2019-03-04T12:26:54.926Z,59.07
2019-03-04T12:29:24.545Z,57.91
2019-03-04T12:31:56.242Z,57.06
2019-03-04T12:34:26.429Z,57.17
2019-03-04T12:36:57.035Z,56.31
2019-03-04T12:39:26.886Z,56.09
2019-03-04T12:41:57.507Z,55.91
2019-03-04T12:52:52.667Z,50.58
2019-03-04T12:55:22.369Z,47.07
2019-03-04T12:57:52.220Z,45.11
2019-03-04T13:00:30.072Z,46.16
2019-03-04T13:03:00.363Z,48.11
2019-03-04T13:05:30.291Z,48.98
2019-03-04T13:08:01.130Z,48.31
2019-03-04T13:10:31.877Z,48.03
2019-03-04T13:13:04.929Z,47.68
2019-03-04T13:15:36.521Z,48.43
2019-03-04T13:18:09.534Z,49.75
2019-03-04T13:20:39.231Z,51.53
2019-03-04T13:23:09.101Z,53.17
2019-03-04T13:25:40.319Z,54.73
2019-03-04T13:28:10.285Z,56.35
2019-03-04T13:30:42.171Z,57.42
2019-03-04T13:33:12.445Z,58.09
2019-03-04T13:35:44.141Z,58.66
2019-03-04T13:38:14.170Z,59.14
2019-03-04T13:40:43.792Z,59.18
2019-03-04T13:43:13.395Z,58.73
2019-03-04T13:45:43.845Z,58.50
2019-03-04T13:48:15.370Z,58.45
2019-03-04T13:50:45.243Z,58.21
2019-03-04T13:53:15.166Z,56.76
2019-03-04T13:55:44.954Z,54.78
2019-03-04T13:58:14.563Z,53.63
2019-03-04T14:00:44.301Z,52.14
2019-03-04T14:03:14.872Z,50.36
2019-03-04T14:05:45.731Z,45.77
2019-03-04T14:08:15.868Z,43.30
2019-03-04T14:10:47.523Z,41.04
2019-03-04T14:13:17.703Z,41.03
2019-03-04T14:15:49.504Z,43.94
2019-03-04T14:18:19.724Z,47.02
2019-03-04T14:20:49.341Z,47.56
2019-03-04T14:23:23.142Z,43.32
2019-03-04T14:25:53.527Z,43.76
2019-03-04T14:28:23.146Z,45.74
2019-03-04T14:30:52.828Z,47.25
2019-03-04T14:33:23.269Z,46.90
2019-03-04T14:35:52.842Z,46.11
2019-03-04T14:38:22.495Z,46.63
2019-03-04T14:40:52.690Z,47.78
2019-03-04T14:43:23.266Z,48.30
2019-03-04T14:45:54.356Z,47.96
2019-03-04T14:48:24.188Z,44.77
2019-03-04T14:50:53.900Z,44.63
2019-03-04T14:53:23.919Z,43.81
2019-03-04T14:55:53.547Z,41.21
2019-03-04T14:58:23.183Z,38.85
2019-03-04T15:00:52.849Z,41.74
2019-03-04T15:03:24.229Z,45.26
2019-03-04T15:05:53.844Z,48.22
2019-03-04T15:08:23.824Z,50.67
2019-03-04T15:10:55.141Z,52.08
2019-03-04T15:13:25.523Z,52.69
2019-03-04T15:16:01.706Z,60.57
2019-03-04T15:18:29.203Z,66.55
2019-03-04T15:21:00.622Z,68.84
2019-03-04T15:23:30.407Z,69.69
2019-03-04T15:26:00.880Z,70.66
2019-03-04T15:28:31.084Z,72.10
2019-03-04T15:31:02.093Z,73.02
2019-03-04T15:33:32.782Z,73.44
2019-03-04T15:36:03.182Z,74.16
2019-03-04T15:38:33.742Z,74.33
2019-03-04T15:41:03.768Z,73.81
2019-03-04T15:43:33.566Z,73.99
2019-03-04T15:46:03.232Z,74.14
2019-03-04T15:48:32.849Z,74.99
2019-03-04T15:51:02.565Z,75.19
2019-03-04T15:53:32.249Z,74.03
2019-03-04T15:56:01.890Z,74.92
2019-03-04T15:58:35.328Z,74.69
2019-03-04T16:01:09.973Z,74.65
2019-03-04T16:03:40.249Z,74.42
2019-03-04T16:06:09.910Z,74.79
2019-03-04T16:08:39.808Z,74.60
2019-03-04T16:11:11.175Z,74.33
2019-03-04T16:13:40.833Z,74.21
2019-03-04T16:16:10.719Z,73.79
2019-03-04T16:18:41.076Z,73.54
2019-03-04T16:21:11.053Z,73.05
2019-03-04T16:23:41.619Z,72.96
2019-03-04T16:26:12.876Z,73.34
2019-03-04T16:28:42.562Z,73.79
2019-03-04T16:31:12.203Z,73.82
2019-03-04T16:33:41.823Z,74.05
2019-03-04T16:36:11.655Z,73.78
2019-03-04T16:38:42.738Z,74.24
2019-03-04T16:41:12.734Z,74.45
2019-03-04T16:43:43.231Z,74.52
2019-03-04T16:46:12.993Z,74.68
2019-03-04T16:48:42.642Z,74.60
2019-03-04T16:51:12.322Z,74.51
2019-03-04T16:53:42.441Z,74.77
2019-03-04T16:56:12.067Z,74.78
2019-03-04T16:58:41.727Z,74.67
2019-03-04T17:01:11.818Z,74.56
2019-03-04T17:03:41.439Z,74.40
2019-03-04T17:06:12.122Z,74.34
2019-03-04T17:08:41.755Z,74.11
2019-03-04T17:11:11.414Z,74.02
2019-03-04T17:13:41.057Z,73.97
2019-03-04T17:16:11.040Z,73.76
2019-03-04T17:18:40.663Z,73.31
2019-03-04T17:21:10.312Z,73.32
2019-03-04T17:23:39.917Z,72.87
2019-03-04T17:26:09.835Z,72.86
2019-03-04T17:28:41.075Z,72.82
2019-03-04T17:31:10.687Z,72.73
2019-03-04T17:33:40.594Z,72.59
2019-03-04T17:36:10.367Z,72.55
2019-03-04T17:38:40.146Z,72.46
2019-03-04T17:41:09.765Z,72.19
2019-03-04T17:43:39.746Z,72.19
2019-03-04T17:46:09.430Z,72.05
2019-03-04T17:48:39.041Z,72.25
2019-03-04T17:51:08.706Z,72.20
2019-03-04T17:53:38.893Z,72.18
2019-03-04T17:56:09.046Z,72.23
2019-03-04T17:58:39.246Z,72.22
2019-03-04T18:01:09.620Z,72.18
2019-03-04T18:03:39.232Z,72.46
2019-03-04T18:06:08.931Z,72.64
2019-03-04T18:08:38.555Z,72.87
2019-03-04T18:11:08.169Z,72.99
2019-03-04T18:13:37.811Z,73.25
2019-03-04T18:16:07.450Z,73.29
2019-03-04T18:18:38.639Z,73.34
2019-03-04T18:21:08.266Z,73.27
2019-03-04T18:23:38.065Z,73.38
2019-03-04T18:26:11.121Z,73.34
2019-03-04T18:28:57.480Z,73.49
2019-03-04T18:31:29.652Z,73.47
2019-03-04T18:34:36.145Z,73.07
2019-03-04T18:37:31.325Z,73.00
2019-03-04T18:40:28.425Z,72.63
2019-03-04T18:43:20.079Z,72.31
2019-03-04T18:46:26.160Z,71.87
2019-03-04T18:48:57.790Z,71.71
2019-03-04T18:51:28.324Z,71.35
2019-03-04T18:54:03.588Z,70.88
2019-03-04T18:56:33.325Z,70.69
2019-03-04T18:59:03.312Z,70.52
2019-03-04T19:01:32.996Z,70.09
2019-03-04T19:04:03.687Z,69.81
2019-03-04T19:06:33.371Z,69.86
2019-03-04T19:09:05.732Z,72.11
2019-03-04T19:11:35.406Z,73.77
2019-03-04T19:14:05.081Z,75.28
2019-03-04T19:16:37.361Z,74.74
2019-03-04T19:19:06.973Z,75.37
2019-03-04T19:21:36.580Z,76.13
2019-03-04T19:24:06.987Z,77.02
2019-03-04T19:26:37.084Z,77.73
2019-03-04T19:29:06.708Z,78.89
2019-03-04T19:31:36.500Z,80.64
2019-03-04T19:34:06.314Z,82.45
2019-03-04T19:36:35.924Z,83.00
2019-03-04T19:39:07.708Z,82.65
2019-03-04T19:41:37.347Z,82.95
2019-03-04T19:44:07.073Z,83.83
2019-03-04T19:46:36.703Z,84.07
2019-03-04T19:49:06.494Z,84.57
2019-03-04T19:51:36.112Z,84.63
2019-03-04T19:54:05.838Z,84.41
2019-03-04T19:56:35.456Z,84.10
2019-03-04T19:59:05.073Z,84.03
2019-03-04T20:01:34.717Z,83.51
2019-03-04T20:04:04.317Z,82.58
2019-03-04T20:06:34.405Z,83.01
2019-03-04T20:09:07.412Z,82.74
2019-03-04T20:11:37.379Z,82.81
2019-03-04T20:14:09.706Z,82.96
2019-03-04T20:16:40.335Z,83.23
2019-03-04T20:19:10.274Z,83.23
2019-03-04T20:21:39.896Z,83.42
2019-03-04T20:24:09.626Z,83.46
2019-03-04T20:26:39.245Z,83.24
2019-03-04T20:29:08.857Z,82.88
2019-03-04T20:31:38.571Z,82.81
2019-03-04T20:34:08.195Z,82.59
2019-03-04T20:36:37.876Z,82.12
2019-03-04T20:39:09.219Z,82.06
2019-03-04T20:41:39.021Z,82.25
2019-03-04T20:44:08.628Z,82.40
2019-03-04T20:46:38.292Z,82.31
2019-03-04T20:49:08.745Z,82.27
2019-03-04T20:51:38.352Z,82.22
2019-03-04T20:54:09.624Z,82.75
2019-03-04T20:56:39.497Z,82.80
2019-03-04T20:59:09.175Z,83.02
2019-03-04T21:01:38.855Z,83.04
2019-03-04T21:04:08.601Z,82.92
2019-03-04T21:06:38.291Z,82.61
2019-03-04T21:09:11.080Z,82.27
2019-03-04T21:11:40.770Z,81.99
2019-03-04T21:14:10.550Z,81.53
2019-03-04T21:16:40.699Z,81.53
2019-03-04T21:19:10.587Z,81.33
2019-03-04T21:21:40.191Z,81.08
2019-03-04T21:24:09.970Z,80.98
2019-03-04T21:26:39.576Z,80.73
2019-03-04T21:29:18.102Z,80.59
2019-03-04T21:32:05.666Z,80.50
2019-03-04T21:35:10.798Z,80.67
2019-03-04T21:37:42.552Z,80.84
2019-03-04T21:40:15.271Z,80.64
2019-03-04T21:42:56.810Z,81.00
2019-03-04T21:45:49.358Z,80.40
2019-03-04T21:48:24.804Z,79.81
2019-03-04T21:51:06.818Z,79.66
2019-03-04T21:53:42.429Z,79.47
2019-03-04T21:56:37.610Z,79.48
2019-03-04T21:59:08.306Z,79.06
2019-03-04T22:01:47.225Z,78.71
2019-03-04T22:04:17.015Z,78.72
2019-03-04T22:06:46.638Z,78.57
2019-03-04T22:09:16.632Z,78.57
2019-03-04T22:11:46.310Z,78.43
2019-03-04T22:14:15.905Z,77.98
2019-03-04T22:16:45.731Z,77.61
2019-03-04T22:19:15.368Z,77.33
2019-03-04T22:21:45.276Z,77.17
2019-03-04T22:24:15.032Z,77.14
2019-03-04T22:26:44.697Z,77.10
2019-03-04T22:29:14.288Z,77.06
2019-03-04T22:31:43.923Z,76.93
2019-03-04T22:34:13.608Z,76.53
2019-03-04T22:36:43.273Z,76.30
2019-03-04T22:39:13.091Z,76.05
2019-03-04T22:41:42.740Z,75.45
2019-03-04T22:44:12.599Z,75.50
2019-03-04T22:46:42.216Z,75.57
2019-03-04T22:49:12.526Z,75.64
2019-03-04T22:51:42.299Z,75.40
2019-03-04T22:54:11.917Z,75.51
2019-03-04T22:56:42.146Z,75.38
2019-03-04T22:59:11.757Z,75.13
2019-03-04T23:01:45.011Z,75.21
2019-03-04T23:04:17.098Z,75.11
2019-03-04T23:06:56.053Z,75.11
2019-03-04T23:09:45.697Z,74.89
2019-03-04T23:12:30.524Z,74.87
2019-03-04T23:15:00.426Z,74.78
2019-03-04T23:17:30.461Z,75.03
2019-03-04T23:20:00.069Z,74.85
2019-03-04T23:22:30.636Z,74.95
2019-03-04T23:25:00.329Z,75.12
2019-03-04T23:27:30.202Z,75.13
2019-03-04T23:29:59.871Z,75.09
2019-03-04T23:32:29.653Z,75.29
2019-03-04T23:34:59.261Z,75.55
2019-03-04T23:37:28.903Z,75.85
2019-03-04T23:39:59.951Z,75.99
2019-03-04T23:42:29.729Z,76.14
2019-03-04T23:44:59.379Z,76.37
2019-03-04T23:47:28.998Z,76.57
2019-03-04T23:50:13.222Z,76.63
2019-03-04T23:52:42.997Z,76.32
2019-03-04T23:55:12.606Z,76.48
2019-03-04T23:57:42.317Z,76.55
